Terminal Aerodrome Forecast
Issued by NWS

Home | Current Version | Previous Version | Text Only | Print | Product List | Glossary On
Versions: 1 2 3 4 5 6 7 8 9 10 11 12 13 14 15 16 17 18 19 20 21 22 23
000
FTUS43 KMPX 012300 RRA
TAFRWF
TAF
KRWF 012343Z 0200/0224 15005KT P6SM SCT045
     FM020300 26006KT P6SM SCT040
     FM020700 32005KT P6SM SCT040
     FM021400 31007KT P6SM VCSH OVC090=

USA.gov is the U.S. government's official web portal to all federal, state and local government web resources and services.